»·PEaware :: N952FG KSNA-KOLS

N952FG :: KSNA-KOLS

FLIGHT INFORMATION

Flight Status: Arrived
Operator: Privately registered:
United States
More flights under this callsign
Pilot: Joseph C. (259)
Aircraft: SOCATA TBM-900
(TBM9)
More flights by this aircraft type
Origin: KSNA John Wayne-Orange Co
United States
Destination: KOLS Nogales Intl
United States
More flights between these airports :: More routes between these airports
Route: +PIGGN2 CNERY BLH J50 GBN TUS OLS
File this flight plan on PilotEdge
Remarks:
Altitude:
(Current/Filed)
31,000ft
Speed:
(Current/Filed)
330kts
Departed: 08-Mar-19 03:44 PM
Arrived: 08-Mar-19 05:06 PM
Distance/Time
Traveled:
380nm/1:22
Distance/Time
To Go:
Arrived

Flight Plot

Page will automatically refresh every two minutes.

Flight plan parsing failed; only flown route is shown


Map Options




Map Legend


Flown Route
Filed Route
Departure Airport
Arrival Airport
Navaid (VOR, NDB)
Fix

Horizontal Profiles

Position Reports

Time Latitude Longitude Heading Altitude Ground
Speed
08-Mar-19 15:26 33.672016 -117.867531 211 59ft 0kts
08-Mar-19 15:27 33.672016 -117.867531 211 59ft 0kts
08-Mar-19 15:28 33.672016 -117.867531 211 59ft 0kts
08-Mar-19 15:29 33.672016 -117.867531 211 59ft 0kts
08-Mar-19 15:30 33.672016 -117.867531 211 59ft 0kts
08-Mar-19 15:31 33.672016 -117.867531 211 59ft 0kts
08-Mar-19 15:32 33.672016 -117.867531 211 59ft 0kts
08-Mar-19 15:33 33.672016 -117.867531 211 59ft 0kts
08-Mar-19 15:34 33.672016 -117.867531 211 59ft 0kts
08-Mar-19 15:35 33.672016 -117.867531 211 59ft 0kts
08-Mar-19 15:36 33.672016 -117.867531 211 59ft 0kts
08-Mar-19 15:37 33.672016 -117.867531 211 59ft 0kts
08-Mar-19 15:38 33.671937 -117.867784 293 59ft 7kts
08-Mar-19 15:39 33.674089 -117.867091 24 59ft 12kts
08-Mar-19 15:40 33.677320 -117.865053 27 59ft 20kts
08-Mar-19 15:41 33.679807 -117.863473 23 59ft 3kts
08-Mar-19 15:42 33.680093 -117.864170 222 59ft 2kts
08-Mar-19 15:43 33.667743 -117.870991 202 448ft 119kts
08-Mar-19 15:44 33.636733 -117.887156 195 2322ft 126kts
08-Mar-19 15:45 33.600784 -117.893863 192 4258ft 132kts
08-Mar-19 15:46 33.559241 -117.891816 157 5304ft 191kts
08-Mar-19 15:47 33.519647 -117.866673 158 7899ft 151kts
08-Mar-19 15:48 33.494398 -117.825083 117 10050ft 168kts
08-Mar-19 15:50 33.475465 -117.771691 86 11876ft 181kts
08-Mar-19 15:51 33.480206 -117.707965 81 13051ft 226kts
08-Mar-19 15:52 33.511353 -117.634682 54 13022ft 271kts
08-Mar-19 15:53 33.549788 -117.553901 54 13001ft 287kts
08-Mar-19 15:54 33.577698 -117.465300 106 12980ft 300kts
08-Mar-19 15:55 33.551002 -117.379934 111 15266ft 214kts
08-Mar-19 15:56 33.531469 -117.317738 112 17476ft 203kts
08-Mar-19 15:57 33.509845 -117.249340 113 19067ft 230kts
08-Mar-19 15:58 33.503597 -117.172147 90 20735ft 238kts
08-Mar-19 15:59 33.502060 -117.091024 92 22240ft 247kts
08-Mar-19 16:00 33.500346 -117.007076 93 23882ft 256kts
08-Mar-19 16:01 33.498517 -116.920327 96 25418ft 264kts
08-Mar-19 16:02 33.497342 -116.830749 96 26807ft 273kts
08-Mar-19 16:03 33.496224 -116.737609 96 27384ft 310kts
08-Mar-19 16:04 33.495253 -116.652076 98 28650ft 305kts
08-Mar-19 16:05 33.493960 -116.550902 100 30045ft 304kts
08-Mar-19 16:06 33.492468 -116.448631 100 30977ft 320kts
08-Mar-19 16:07 33.490844 -116.335263 99 30967ft 356kts
08-Mar-19 16:08 33.488984 -116.213497 99 30956ft 371kts
08-Mar-19 16:09 33.486976 -116.089149 99 30954ft 375kts
08-Mar-19 16:10 33.505579 -115.964601 71 30958ft 393kts
08-Mar-19 16:11 33.542710 -115.840638 74 30959ft 395kts
08-Mar-19 16:11 33.572978 -115.736709 74 30961ft 398kts
08-Mar-19 16:13 33.614816 -115.592422 75 30961ft 402kts
08-Mar-19 16:14 33.619037 -115.464835 106 30966ft 377kts
08-Mar-19 16:14 33.614937 -115.359492 102 30966ft 381kts
08-Mar-19 16:16 33.610521 -115.210813 103 30943ft 382kts
08-Mar-19 16:17 33.606580 -115.083075 103 30944ft 384kts
08-Mar-19 16:17 33.602941 -114.975837 100 30938ft 385kts
08-Mar-19 16:18 33.598820 -114.847148 84 30946ft 383kts
08-Mar-19 16:19 33.592466 -114.719471 89 30950ft 383kts
08-Mar-19 16:20 33.581073 -114.592254 89 30949ft 381kts
08-Mar-19 16:21 33.569725 -114.465965 89 30951ft 380kts
08-Mar-19 16:22 33.558323 -114.340512 89 30948ft 379kts
08-Mar-19 16:23 33.546804 -114.215318 90 30940ft 378kts
08-Mar-19 16:24 33.535105 -114.089371 90 30951ft 377kts
08-Mar-19 16:25 33.508574 -113.967570 116 30970ft 385kts
08-Mar-19 16:26 33.459128 -113.856013 118 30978ft 385kts
08-Mar-19 16:27 33.408515 -113.742451 118 30986ft 385kts
08-Mar-19 16:28 33.357993 -113.629471 119 30970ft 385kts
08-Mar-19 16:29 33.307160 -113.516130 120 30955ft 385kts
08-Mar-19 16:30 33.256138 -113.402773 121 30955ft 384kts
08-Mar-19 16:31 33.205908 -113.291501 122 30941ft 382kts
08-Mar-19 16:32 33.155330 -113.179819 123 30942ft 379kts
08-Mar-19 16:33 33.105067 -113.069196 124 30944ft 378kts
08-Mar-19 16:34 33.054812 -112.958888 124 30945ft 376kts
08-Mar-19 16:35 33.004404 -112.848624 125 30947ft 376kts
08-Mar-19 16:36 32.954305 -112.739348 125 30948ft 375kts
08-Mar-19 16:37 32.905047 -112.632211 126 30950ft 374kts
08-Mar-19 16:38 32.855126 -112.524031 126 30921ft 375kts
08-Mar-19 16:39 32.803762 -112.412991 127 30346ft 387kts
08-Mar-19 16:40 32.751199 -112.299731 127 29591ft 395kts
08-Mar-19 16:41 32.697571 -112.184487 128 28582ft 399kts
08-Mar-19 16:42 32.643354 -112.068421 128 27408ft 403kts
08-Mar-19 16:43 32.588771 -111.951763 129 26213ft 401kts
08-Mar-19 16:44 32.534866 -111.837209 129 24834ft 391kts
08-Mar-19 16:45 32.482336 -111.725858 129 23341ft 383kts
08-Mar-19 16:46 32.430091 -111.615362 128 21857ft 380kts
08-Mar-19 16:47 32.378753 -111.507069 128 20397ft 367kts
08-Mar-19 16:48 32.330120 -111.404819 128 18897ft 345kts
08-Mar-19 16:49 32.283348 -111.306778 128 17388ft 336kts
08-Mar-19 16:50 32.237873 -111.211725 127 15854ft 329kts
08-Mar-19 16:51 32.193057 -111.118226 126 14323ft 321kts
08-Mar-19 16:52 32.135650 -111.053511 175 12690ft 267kts
08-Mar-19 16:53 32.067170 -111.033980 173 11000ft 244kts
08-Mar-19 16:54 32.000382 -111.014742 173 11005ft 251kts
08-Mar-19 16:55 31.930830 -110.994698 174 11005ft 261kts
08-Mar-19 16:56 31.859701 -110.974258 173 11003ft 263kts
08-Mar-19 16:57 31.788837 -110.953903 174 10999ft 261kts
08-Mar-19 16:58 31.718620 -110.933777 174 11012ft 258kts
08-Mar-19 16:59 31.648769 -110.913800 174 10880ft 262kts
08-Mar-19 17:00 31.583057 -110.895048 166 9179ft 238kts
08-Mar-19 17:01 31.521020 -110.877306 167 6883ft 231kts
08-Mar-19 17:02 31.469234 -110.846714 137 5467ft 180kts
08-Mar-19 17:03 31.436696 -110.832477 180 4496ft 83kts
08-Mar-19 17:04 31.419024 -110.846320 225 3904ft 56kts
08-Mar-19 17:05 31.416914 -110.850671 49 3881ft 4kts
08-Mar-19 17:06 31.418157 -110.849984 22 3887ft 4kts
08-Mar-19 17:07 31.418211 -110.849928 45 3888ft 0kts
08-Mar-19 17:08 31.418211 -110.849928 45 3888ft 0kts

Navigation Log

Ident Type
Flight plan parsing failed, navigation log unavailable